Time;durP1;ratioP1;P1;durP2;ratioP2;P2;SDS_P1;SDS_P2;PMS_P1;PMS_P2;Temp;Humidity;BMP_temperature;BMP_pressure;BME280_temperature;BME280_humidity;BME280_pressure;Samples;Min_cycle;Max_cycle;Signal;HPM_P1;HPM_P2
2022/12/20 00:02:14;;;;;;;;;;;;;;;7.82;100.00;101212.34;5272505;28;19970;-67
2022/12/20 00:04:45;;;;;;;;;;;;;;;7.83;100.00;101222.88;5276212;28;19924;-67
2022/12/20 00:07:17;;;;;;;;;;;;;;;7.82;100.00;101222.97;5272583;28;20348;-67
2022/12/20 00:09:48;;;;;;;;;;;;;;;7.84;100.00;101221.06;5272591;28;19920;-67
2022/12/20 00:12:19;;;;;;;;;;;;;;;7.87;100.00;101218.25;5275173;28;19927;-67
2022/12/20 00:14:50;;;;;;;;;;;;;;;7.90;100.00;101212.78;5276741;28;20445;-67
2022/12/20 00:17:21;;;;;;;;;;;;;;;7.94;100.00;101210.75;5269776;28;20030;-67
2022/12/20 00:19:52;;;;;;;;;;;;;;;7.98;100.00;101209.66;5275786;28;19916;-67
2022/12/20 00:22:24;;;;;;;;;;;;;;;7.99;100.00;101208.69;5288992;28;20378;-67
2022/12/20 00:24:55;;;;;;;;;;;;;;;8.04;100.00;101207.47;5278699;28;19924;-67
2022/12/20 00:27:26;;;;;;;;;;;;;;;8.08;100.00;101204.63;5273971;28;19920;-67
2022/12/20 00:29:57;;;;;;;;;;;;;;;8.08;100.00;101196.66;5275753;28;19999;-67
2022/12/20 00:32:29;;;;;;;;;;;;;;;8.09;100.00;101201.03;5270096;28;20771;-67
2022/12/20 00:35:00;;;;;;;;;;;;;;;8.11;100.00;101186.72;5271410;28;20330;-67
2022/12/20 00:37:31;;;;;;;;;;;;;;;8.15;100.00;101203.28;5274164;28;19924;-67
2022/12/20 00:40:03;;;;;;;;;;;;;;;8.15;100.00;101203.28;5275899;28;19923;-67
2022/12/20 00:42:34;;;;;;;;;;;;;;;8.14;100.00;101191.81;5271092;28;19974;-67
2022/12/20 00:45:06;;;;;;;;;;;;;;;8.17;100.00;101188.09;5285758;28;20373;-67
2022/12/20 00:47:37;;;;;;;;;;;;;;;8.19;100.00;101172.94;5272934;28;19916;-67
2022/12/20 00:50:08;;;;;;;;;;;;;;;8.18;100.00;101189.84;5278695;28;19920;-67
2022/12/20 00:52:39;;;;;;;;;;;;;;;8.22;100.00;101170.09;5283234;28;19920;-67
2022/12/20 00:55:11;;;;;;;;;;;;;;;8.27;100.00;101188.44;5279721;28;19920;-67
2022/12/20 00:57:42;;;;;;;;;;;;;;;8.30;100.00;101185.56;5285793;28;19924;-67
2022/12/20 01:00:14;;;;;;;;;;;;;;;8.31;100.00;101174.84;5283910;28;19923;-67
2022/12/20 01:02:45;;;;;;;;;;;;;;;8.35;100.00;101186.16;5279982;28;19969;-67
2022/12/20 01:05:16;;;;;;;;;;;;;;;8.35;100.00;101176.34;5273720;28;20480;-67
2022/12/20 01:07:47;;;;;;;;;;;;;;;8.39;100.00;101169.06;5274085;28;19924;-67
2022/12/20 01:10:19;;;;;;;;;;;;;;;8.40;100.00;101184.91;5273378;28;20415;-67
2022/12/20 01:12:50;;;;;;;;;;;;;;;8.39;100.00;101188.50;5268934;28;19924;-67
2022/12/20 01:15:21;;;;;;;;;;;;;;;8.37;100.00;101193.06;5274653;28;19928;-67
2022/12/20 01:17:52;;;;;;;;;;;;;;;8.37;100.00;101195.72;5269020;28;19970;-67
2022/12/20 01:20:24;;;;;;;;;;;;;;;8.34;100.00;101193.28;5269513;28;20423;-67
2022/12/20 01:22:55;;;;;;;;;;;;;;;8.33;100.00;101182.72;5268912;28;20017;-67
2022/12/20 01:25:26;;;;;;;;;;;;;;;8.30;100.00;101180.25;5272659;28;20459;-66
2022/12/20 01:27:57;;;;;;;;;;;;;;;8.27;100.00;101201.72;5276287;28;19920;-66
2022/12/20 01:30:28;;;;;;;;;;;;;;;8.24;100.00;101187.63;5251358;28;19924;-66
2022/12/20 01:33:00;;;;;;;;;;;;;;;8.22;100.00;101202.84;5270888;28;19925;-66
2022/12/20 01:35:31;;;;;;;;;;;;;;;8.21;100.00;101193.16;5275152;28;20479;-66
2022/12/20 01:38:02;;;;;;;;;;;;;;;8.18;100.00;101187.19;5271700;28;20586;-66
2022/12/20 01:40:33;;;;;;;;;;;;;;;8.18;100.00;101180.06;5269499;28;19924;-66
2022/12/20 01:43:04;;;;;;;;;;;;;;;8.17;100.00;101172.16;5274949;28;19920;-66
2022/12/20 01:45:36;;;;;;;;;;;;;;;8.15;100.00;101176.72;5272193;28;19916;-66
2022/12/20 01:48:07;;;;;;;;;;;;;;;8.18;100.00;101173.88;5273732;28;19924;-66
2022/12/20 01:50:38;;;;;;;;;;;;;;;8.16;100.00;101173.97;5271401;28;19923;-66
2022/12/20 01:53:10;;;;;;;;;;;;;;;8.15;100.00;101151.03;5273824;28;19939;-66
2022/12/20 01:55:41;;;;;;;;;;;;;;;8.16;100.00;101127.94;5250281;28;19970;-66
2022/12/20 01:58:15;;;;;;;;;;;;;;;8.20;100.00;101151.56;5270852;28;19927;-66
2022/12/20 02:00:46;;;;;;;;;;;;;;;8.23;100.00;101142.56;5272210;28;19947;-66
2022/12/20 02:03:17;;;;;;;;;;;;;;;8.22;100.00;101141.69;5268193;28;19920;-66
2022/12/20 02:05:48;;;;;;;;;;;;;;;8.23;100.00;101140.75;5272419;28;20055;-66
2022/12/20 02:08:20;;;;;;;;;;;;;;;8.24;100.00;101149.56;5268987;28;20255;-66
2022/12/20 02:10:54;;;;;;;;;;;;;;;8.24;100.00;101152.22;5269973;28;20373;-66
2022/12/20 02:13:36;;;;;;;;;;;;;;;8.26;100.00;101137.03;5271490;28;19931;-66
2022/12/20 02:16:08;;;;;;;;;;;;;;;8.26;100.00;101126.41;5271662;28;19947;-66
2022/12/20 02:18:44;;;;;;;;;;;;;;;8.22;100.00;101117.78;5271722;28;19924;-66
2022/12/20 02:21:18;;;;;;;;;;;;;;;8.21;100.00;101109.91;5274500;28;20006;-66
2022/12/20 02:24:01;;;;;;;;;;;;;;;8.20;100.00;101101.06;5276353;28;19959;-66
2022/12/20 02:26:51;;;;;;;;;;;;;;;8.20;100.00;101102.88;5279833;28;19920;-66
2022/12/20 02:29:28;;;;;;;;;;;;;;;8.18;100.00;101113.59;5277058;28;20030;-66
2022/12/20 02:32:03;;;;;;;;;;;;;;;8.16;100.00;101114.66;5273065;28;19964;-67
2022/12/20 02:34:36;;;;;;;;;;;;;;;8.15;100.00;101108.50;5277954;28;20377;-66
2022/12/20 02:37:08;;;;;;;;;;;;;;;8.13;100.00;101104.19;5274927;28;20303;-66
2022/12/20 02:39:40;;;;;;;;;;;;;;;8.11;100.00;101096.34;5276210;28;20472;-66
2022/12/20 02:42:14;;;;;;;;;;;;;;;8.10;100.00;101104.41;5273467;28;20386;-66
2022/12/20 02:47:47;;;;;;;;;;;;;;;8.10;100.00;101097.28;5273175;28;19916;-66
2022/12/20 02:50:39;;;;;;;;;;;;;;;8.10;100.00;101099.94;5276041;28;19920;-66
2022/12/20 02:53:10;;;;;;;;;;;;;;;8.09;100.00;101078.78;5272918;28;19931;-66
2022/12/20 02:55:47;;;;;;;;;;;;;;;8.09;100.00;101089.41;5273686;28;20382;-66
2022/12/20 02:58:28;;;;;;;;;;;;;;;8.08;100.00;101080.59;5274943;28;19920;-66
2022/12/20 03:01:03;;;;;;;;;;;;;;;8.09;100.00;101089.41;5270144;28;19931;-66
2022/12/20 03:03:34;;;;;;;;;;;;;;;8.09;100.00;101082.28;5275289;28;19916;-66
2022/12/20 03:06:06;;;;;;;;;;;;;;;8.07;100.00;101081.53;5273415;28;20281;-66
2022/12/20 03:08:37;;;;;;;;;;;;;;;8.07;100.00;101088.66;5273537;28;19927;-66
2022/12/20 03:11:08;;;;;;;;;;;;;;;8.05;100.00;101078.97;5272128;28;20015;-66
2022/12/20 03:13:39;;;;;;;;;;;;;;;8.08;100.00;101085.91;5278635;28;20312;-66
2022/12/20 03:16:10;;;;;;;;;;;;;;;8.10;100.00;101101.75;5271656;28;19964;-66
2022/12/20 03:18:44;;;;;;;;;;;;;;;8.10;100.00;101086.66;5273206;28;19931;-66
2022/12/20 03:21:15;;;;;;;;;;;;;;;8.12;100.00;101092.72;5274976;28;20227;-66
2022/12/20 03:23:46;;;;;;;;;;;;;;;8.13;100.00;101078.50;5271667;28;19924;-66
2022/12/20 03:26:18;;;;;;;;;;;;;;;8.16;100.00;101083.59;5272576;28;19960;-66
2022/12/20 03:28:49;;;;;;;;;;;;;;;8.18;100.00;101081.69;5279141;28;19995;-66
2022/12/20 03:31:20;;;;;;;;;;;;;;;8.18;100.00;101071.06;5281892;28;20410;-66
2022/12/20 03:33:51;;;;;;;;;;;;;;;8.21;100.00;101075.38;5282653;28;19920;-66
2022/12/20 03:36:23;;;;;;;;;;;;;;;8.24;100.00;101073.34;5266768;28;19962;-66
2022/12/20 03:38:54;;;;;;;;;;;;;;;8.25;100.00;101077.72;5273475;28;19920;-66
2022/12/20 03:41:26;;;;;;;;;;;;;;;8.26;100.00;101094.50;5275283;28;19924;-66
2022/12/20 03:43:57;;;;;;;;;;;;;;;8.27;100.00;101080.28;5276711;28;20061;-66
2022/12/20 03:46:29;;;;;;;;;;;;;;;8.28;100.00;101092.59;5275865;28;20334;-66
2022/12/20 03:49:00;;;;;;;;;;;;;;;8.31;100.00;101092.44;5276563;28;20194;-66
2022/12/20 03:51:31;;;;;;;;;;;;;;;8.34;100.00;101086.94;5284553;28;20339;-66
2022/12/20 03:54:02;;;;;;;;;;;;;;;8.38;100.00;101091.09;5287441;28;19951;-66
2022/12/20 03:56:34;;;;;;;;;;;;;;;8.40;100.00;101083.88;5284444;28;19931;-66
2022/12/20 03:59:05;;;;;;;;;;;;;;;8.45;100.00;101070.31;5284165;28;19969;-66
2022/12/20 04:01:37;;;;;;;;;;;;;;;8.48;100.00;101072.78;5288687;28;20029;-66
2022/12/20 04:04:09;;;;;;;;;;;;;;;8.50;100.00;101086.00;5284884;28;19924;-66
2022/12/20 04:06:40;;;;;;;;;;;;;;;8.51;100.00;101071.72;5287402;28;19926;-66
2022/12/20 04:09:12;;;;;;;;;;;;;;;8.50;100.00;101065.56;5283698;28;19920;-66
2022/12/20 04:11:43;;;;;;;;;;;;;;;8.52;100.00;101078.75;5292920;28;19923;-66
2022/12/20 04:14:14;;;;;;;;;;;;;;;8.54;100.00;101069.72;5289289;28;20332;-66
2022/12/20 04:16:45;;;;;;;;;;;;;;;8.60;100.00;101063.16;5280905;28;19928;-66
2022/12/20 04:19:17;;;;;;;;;;;;;;;8.63;100.00;101073.59;5282419;28;19927;-66
2022/12/20 04:21:48;;;;;;;;;;;;;;;8.66;100.00;101072.56;5287693;28;19920;-66
2022/12/20 04:24:19;;;;;;;;;;;;;;;8.67;100.00;101083.09;5286211;28;20841;-66
2022/12/20 04:26:50;;;;;;;;;;;;;;;8.70;100.00;101069.56;5285758;28;19920;-66
2022/12/20 04:29:21;;;;;;;;;;;;;;;8.71;100.00;101060.66;5283118;28;20297;-66
2022/12/20 04:31:52;;;;;;;;;;;;;;;8.74;100.00;101073.75;5284189;28;19927;-66
2022/12/20 04:34:24;;;;;;;;;;;;;;;8.72;100.00;101065.00;5277060;28;21025;-66
2022/12/20 04:36:55;;;;;;;;;;;;;;;8.73;100.00;101057.91;5283134;28;19997;-66
2022/12/20 04:39:26;;;;;;;;;;;;;;;8.74;100.00;101065.75;5293646;28;19920;-67
2022/12/20 04:41:57;;;;;;;;;;;;;;;8.74;100.00;101064.91;5272639;28;20437;-67
2022/12/20 04:44:29;;;;;;;;;;;;;;;8.78;100.00;101061.09;5286971;28;19926;-67
2022/12/20 04:47:00;;;;;;;;;;;;;;;8.79;100.00;101053.00;5282686;28;19931;-66
2022/12/20 04:49:31;;;;;;;;;;;;;;;8.80;100.00;101067.16;5284883;28;20069;-67
2022/12/20 04:54:52;;;;;;;;;;;;;;;8.81;100.00;101059.09;5285862;28;19928;-66
2022/12/20 04:57:23;;;;;;;;;;;;;;;8.79;100.00;101061.00;5284051;28;19951;-66
2022/12/20 04:59:55;;;;;;;;;;;;;;;8.79;100.00;101061.00;5282440;28;19927;-66
2022/12/20 05:02:26;;;;;;;;;;;;;;;8.79;100.00;101042.38;5282944;28;19924;-67
2022/12/20 05:04:57;;;;;;;;;;;;;;;8.85;100.00;101049.09;5275572;28;19932;-67
2022/12/20 05:07:28;;;;;;;;;;;;;;;8.89;100.00;101044.44;5276698;28;20287;-67
2022/12/20 05:09:59;;;;;;;;;;;;;;;8.91;100.00;101042.53;5277326;28;19923;-67
2022/12/20 05:12:30;;;;;;;;;;;;;;;8.93;100.00;101038.78;5275387;28;20027;-67
2022/12/20 05:15:02;;;;;;;;;;;;;;;8.94;100.00;101037.00;5256676;28;19961;-67
2022/12/20 05:17:33;;;;;;;;;;;;;;;8.92;100.00;101030.94;5273804;28;20382;-67
2022/12/20 05:20:05;;;;;;;;;;;;;;;8.93;100.00;101025.50;5271642;28;20293;-67
2022/12/20 05:28:16;;;;;;;;;;;;;;;8.96;100.00;101019.97;5272228;28;20352;-67
2022/12/20 05:30:47;;;;;;;;;;;;;;;8.96;100.00;101013.81;5271886;28;19920;-67
2022/12/20 05:33:18;;;;;;;;;;;;;;;8.95;100.00;101015.59;5271516;28;20369;-67
2022/12/20 05:35:49;;;;;;;;;;;;;;;8.94;100.00;101015.72;5270981;28;19925;-67
2022/12/20 05:38:21;;;;;;;;;;;;;;;8.96;100.00;101016.47;5272447;28;19967;-67
2022/12/20 05:40:52;;;;;;;;;;;;;;;8.97;100.00;101004.84;5270344;28;19923;-67
2022/12/20 05:43:23;;;;;;;;;;;;;;;8.98;100.00;101007.41;5277179;28;20044;-67
2022/12/20 05:45:55;;;;;;;;;;;;;;;8.99;100.00;101002.94;5266456;28;19924;-67
2022/12/20 05:48:26;;;;;;;;;;;;;;;8.99;100.00;101002.94;5271901;28;20174;-67
2022/12/20 05:50:57;;;;;;;;;;;;;;;8.99;100.00;101008.25;5272543;28;20012;-67
2022/12/20 05:53:29;;;;;;;;;;;;;;;9.02;100.00;100998.25;5272453;28;19924;-67
2022/12/20 05:56:00;;;;;;;;;;;;;;;8.99;100.00;100990.50;5273249;28;19924;-66
2022/12/20 05:58:31;;;;;;;;;;;;;;;9.00;100.00;100980.72;5271021;28;20022;-67
2022/12/20 06:01:04;;;;;;;;;;;;;;;8.99;100.00;100981.66;5268339;28;19924;-67
2022/12/20 06:03:36;;;;;;;;;;;;;;;8.99;100.00;100985.19;5272626;28;20120;-67
2022/12/20 06:06:07;;;;;;;;;;;;;;;9.01;100.00;100971.75;5273586;28;19927;-67
2022/12/20 06:08:38;;;;;;;;;;;;;;;9.01;100.00;100961.09;5271421;28;20614;-67
2022/12/20 06:11:10;;;;;;;;;;;;;;;9.00;100.00;100949.63;5275317;28;19924;-67
2022/12/20 06:13:41;;;;;;;;;;;;;;;9.01;100.00;100943.34;5275263;28;19920;-68
2022/12/20 06:16:12;;;;;;;;;;;;;;;9.01;100.00;100945.13;5272652;28;19924;-67
2022/12/20 06:18:43;;;;;;;;;;;;;;;9.00;100.00;100943.44;5281628;28;20405;-67
2022/12/20 06:21:15;;;;;;;;;;;;;;;8.97;100.00;100949.81;5284317;28;19924;-67
2022/12/20 06:23:46;;;;;;;;;;;;;;;8.96;100.00;100949.94;5283158;28;19931;-68
2022/12/20 06:26:17;;;;;;;;;;;;;;;8.94;100.00;100949.19;5283785;28;19926;-67
2022/12/20 06:28:53;;;;;;;;;;;;;;;8.94;100.00;100949.19;5276565;28;19997;-67
2022/12/20 06:31:24;;;;;;;;;;;;;;;8.90;100.00;100955.66;5274265;28;20374;-67
2022/12/20 06:33:55;;;;;;;;;;;;;;;8.88;100.00;100954.91;5278331;28;19931;-67
2022/12/20 06:36:26;;;;;;;;;;;;;;;8.87;100.00;100959.38;5276436;28;19981;-67
2022/12/20 06:38:58;;;;;;;;;;;;;;;8.83;100.00;100957.91;5278251;28;20388;-67
2022/12/20 06:41:29;;;;;;;;;;;;;;;8.86;100.00;100955.03;5278046;28;19920;-68
2022/12/20 06:44:00;;;;;;;;;;;;;;;8.84;100.00;100956.94;5278685;28;19927;-68
2022/12/20 06:46:32;;;;;;;;;;;;;;;8.85;100.00;100958.63;5274679;28;20020;-68
2022/12/20 06:49:03;;;;;;;;;;;;;;;8.86;100.00;100964.81;5285491;28;20255;-68
2022/12/20 06:51:34;;;;;;;;;;;;;;;8.83;100.00;100950.75;5277653;28;19970;-68
2022/12/20 06:54:05;;;;;;;;;;;;;;;8.86;100.00;100959.47;5282967;28;20463;-67
2022/12/20 06:56:36;;;;;;;;;;;;;;;8.86;100.00;100954.16;5278989;28;19924;-68
2022/12/20 06:59:08;;;;;;;;;;;;;;;8.86;100.00;100956.81;5281008;28;20273;-67
2022/12/20 07:01:39;;;;;;;;;;;;;;;8.83;100.00;100961.41;5280073;28;19924;-67
2022/12/20 07:04:10;;;;;;;;;;;;;;;8.81;100.00;100957.16;5277183;28;19998;-67
2022/12/20 07:06:41;;;;;;;;;;;;;;;8.83;100.00;100964.06;5284514;28;20437;-67
2022/12/20 07:09:13;;;;;;;;;;;;;;;8.85;100.00;100969.28;5282125;28;20332;-67
2022/12/20 07:11:44;;;;;;;;;;;;;;;8.87;100.00;100955.88;5282401;28;20003;-67
2022/12/20 07:14:15;;;;;;;;;;;;;;;8.87;100.00;100964.72;5286958;28;19977;-67
2022/12/20 07:16:46;;;;;;;;;;;;;;;8.89;100.00;100970.78;5282909;28;20845;-68
2022/12/20 07:19:17;;;;;;;;;;;;;;;8.91;100.00;100970.69;5290871;28;19980;-68
2022/12/20 07:21:49;;;;;;;;;;;;;;;8.91;100.00;100968.88;5285274;28;20293;-68
2022/12/20 07:24:20;;;;;;;;;;;;;;;8.97;100.00;100956.94;5284918;28;20033;-67
2022/12/20 07:26:51;;;;;;;;;;;;;;;8.97;100.00;100962.28;5285405;28;19916;-68
2022/12/20 07:29:23;;;;;;;;;;;;;;;8.96;100.00;100963.25;5296035;28;19920;-67
2022/12/20 07:31:54;;;;;;;;;;;;;;;8.96;100.00;100965.91;5293239;28;19920;-68
2022/12/20 07:34:25;;;;;;;;;;;;;;;8.96;100.00;100963.25;5295940;28;19925;-68
2022/12/20 07:36:57;;;;;;;;;;;;;;;8.96;100.00;100964.09;5281936;28;20018;-67
2022/12/20 07:39:28;;;;;;;;;;;;;;;8.98;100.00;100971.97;5272839;28;19951;-67
2022/12/20 07:41:59;;;;;;;;;;;;;;;8.96;100.00;100965.91;5290466;28;19974;-68
2022/12/20 07:44:30;;;;;;;;;;;;;;;8.97;100.00;100978.25;5294898;28;19924;-68
2022/12/20 07:47:01;;;;;;;;;;;;;;;8.96;100.00;100972.06;5287665;28;20415;-67
2022/12/20 07:49:33;;;;;;;;;;;;;;;8.99;100.00;100979.84;5295234;28;19927;-68
2022/12/20 07:52:05;;;;;;;;;;;;;;;8.97;100.00;100983.56;5285906;28;19920;-68
2022/12/20 07:54:40;;;;;;;;;;;;;;;8.97;100.00;100980.91;5284579;28;19931;-67
2022/12/20 07:57:17;;;;;;;;;;;;;;;8.97;100.00;100987.06;5292107;28;19927;-67
2022/12/20 07:59:51;;;;;;;;;;;;;;;8.99;100.00;100986.97;5296306;28;20707;-68
2022/12/20 08:02:26;;;;;;;;;;;;;;;8.98;100.00;100987.94;5280901;28;19936;-68
2022/12/20 08:04:57;;;;;;;;;;;;;;;8.98;100.00;100993.25;5289335;28;19927;-68
2022/12/20 08:07:29;;;;;;;;;;;;;;;8.96;100.00;100981.88;5291889;28;19920;-67
2022/12/20 08:10:01;;;;;;;;;;;;;;;8.93;100.00;100982.91;5293750;28;19916;-67
2022/12/20 08:12:32;;;;;;;;;;;;;;;8.93;100.00;100990.06;5287428;28;21051;-67
2022/12/20 08:15:03;;;;;;;;;;;;;;;8.91;100.00;100978.66;5290909;28;19973;-67
2022/12/20 08:17:35;;;;;;;;;;;;;;;8.89;100.00;100981.41;5283926;28;20338;-67
2022/12/20 08:20:07;;;;;;;;;;;;;;;8.88;100.00;100981.50;5288723;28;20373;-67
2022/12/20 08:22:38;;;;;;;;;;;;;;;8.86;100.00;100984.31;5282065;28;19920;-67
2022/12/20 08:25:10;;;;;;;;;;;;;;;8.88;100.00;100984.19;5296275;28;20291;-67
2022/12/20 08:27:42;;;;;;;;;;;;;;;8.88;100.00;100986.84;5287290;28;19920;-67
2022/12/20 08:30:13;;;;;;;;;;;;;;;8.89;100.00;100980.56;5282721;28;19920;-67
2022/12/20 08:32:44;;;;;;;;;;;;;;;8.87;100.00;100985.16;5283549;28;19974;-67
2022/12/20 08:35:15;;;;;;;;;;;;;;;8.85;100.00;100987.06;5285928;28;20309;-67
2022/12/20 08:37:47;;;;;;;;;;;;;;;8.85;100.00;100984.41;5289927;28;20309;-67
2022/12/20 08:40:19;;;;;;;;;;;;;;;8.85;100.00;100987.06;5287591;28;20014;-67
2022/12/20 08:42:50;;;;;;;;;;;;;;;8.82;100.00;100977.47;5280554;28;20345;-67
2022/12/20 08:45:21;;;;;;;;;;;;;;;8.82;100.00;100974.78;5291550;28;19927;-66
2022/12/20 08:47:53;;;;;;;;;;;;;;;8.80;100.00;100974.94;5282217;28;19924;-67
2022/12/20 08:50:25;;;;;;;;;;;;;;;8.77;100.00;100967.13;5282353;28;19920;-66
2022/12/20 08:52:57;;;;;;;;;;;;;;;8.75;100.00;100971.72;5294808;28;19924;-66
2022/12/20 08:55:28;;;;;;;;;;;;;;;8.74;100.00;100964.66;5287977;28;19921;-66
2022/12/20 08:57:59;;;;;;;;;;;;;;;8.71;100.00;100964.88;5302358;28;19915;-66
2022/12/20 09:00:30;;;;;;;;;;;;;;;8.70;100.00;100965.00;5280383;28;19920;-66
2022/12/20 09:03:02;;;;;;;;;;;;;;;8.68;100.00;100962.44;5278853;28;20397;-66
2022/12/20 09:05:33;;;;;;;;;;;;;;;8.64;100.00;100956.44;5283842;28;19924;-66
2022/12/20 09:08:04;;;;;;;;;;;;;;;8.64;100.00;100958.28;5284893;28;19963;-66
2022/12/20 09:10:35;;;;;;;;;;;;;;;8.63;100.00;100948.59;5286482;28;20056;-66
2022/12/20 09:13:07;;;;;;;;;;;;;;;8.61;100.00;100948.69;5267903;28;19916;-66
2022/12/20 09:15:38;;;;;;;;;;;;;;;8.59;100.00;100945.28;5287307;28;20379;-67
2022/12/20 09:18:09;;;;;;;;;;;;;;;8.60;100.00;100952.28;5289553;28;19928;-66
2022/12/20 09:20:41;;;;;;;;;;;;;;;8.60;100.00;100954.13;5284505;28;19990;-66
2022/12/20 09:23:12;;;;;;;;;;;;;;;8.62;100.00;100954.84;5290973;28;20301;-66
2022/12/20 09:25:44;;;;;;;;;;;;;;;8.62;100.00;100954.84;5286328;28;20293;-66
2022/12/20 09:28:15;;;;;;;;;;;;;;;8.65;100.00;100960.00;5285686;28;19923;-66
2022/12/20 09:30:46;;;;;;;;;;;;;;;8.67;100.00;100955.41;5285210;28;20268;-66
2022/12/20 09:33:17;;;;;;;;;;;;;;;8.70;100.00;100962.31;5287361;28;19912;-66
2022/12/20 09:35:49;;;;;;;;;;;;;;;8.72;100.00;100958.59;5286786;28;20362;-66
2022/12/20 09:38:20;;;;;;;;;;;;;;;8.77;100.00;100956.50;5285320;28;19920;-66
2022/12/20 09:40:52;;;;;;;;;;;;;;;8.77;100.00;100948.50;5280284;28;20348;-66
2022/12/20 09:43:24;;;;;;;;;;;;;;;8.80;100.00;100948.31;5287999;28;19923;-66
2022/12/20 09:45:57;;;;;;;;;;;;;;;8.82;100.00;100954.38;5288782;28;20278;-66
2022/12/20 09:48:34;;;;;;;;;;;;;;;8.86;100.00;100955.03;5295741;28;19916;-67
2022/12/20 09:51:14;;;;;;;;;;;;;;;8.89;100.00;100960.13;5285852;28;19924;-67
2022/12/20 09:54:02;;;;;;;;;;;;;;;8.90;100.00;100955.66;5275928;28;19928;-67
2022/12/20 09:56:41;;;;;;;;;;;;;;;8.90;100.00;100956.53;5279136;28;19935;-67
2022/12/20 09:59:19;;;;;;;;;;;;;;;8.92;100.00;100954.63;5284973;28;20014;-66
2022/12/20 10:01:51;;;;;;;;;;;;;;;8.90;100.00;100951.22;5276186;28;20013;-66
2022/12/20 10:04:24;;;;;;;;;;;;;;;8.90;100.00;100951.22;5289415;28;19983;-66
2022/12/20 10:07:19;;;;;;;;;;;;;;;8.92;100.00;100953.78;5287752;28;20413;-66
2022/12/20 10:09:56;;;;;;;;;;;;;;;8.92;100.00;100951.94;5293453;28;19979;-66
2022/12/20 10:12:27;;;;;;;;;;;;;;;8.93;100.00;100942.16;5279671;28;20367;-66
2022/12/20 10:15:02;;;;;;;;;;;;;;;8.96;100.00;100944.63;5282839;28;19919;-66
2022/12/20 10:17:36;;;;;;;;;;;;;;;8.97;100.00;100948.97;5279283;28;19935;-67
2022/12/20 10:20:10;;;;;;;;;;;;;;;9.00;100.00;100948.78;5280144;28;19934;-68
2022/12/20 10:22:59;;;;;;;;;;;;;;;9.01;100.00;100954.00;5285366;28;20045;-67
2022/12/20 10:25:31;;;;;;;;;;;;;;;9.05;100.00;100954.66;5283590;28;19920;-67
2022/12/20 10:28:14;;;;;;;;;;;;;;;9.09;100.00;100941.94;5286084;28;20400;-67
2022/12/20 10:30:45;;;;;;;;;;;;;;;9.12;100.00;100950.56;5285625;28;19951;-67
2022/12/20 10:33:19;;;;;;;;;;;;;;;9.13;100.00;100952.28;5291584;28;20013;-67
2022/12/20 10:35:51;;;;;;;;;;;;;;;9.15;100.00;100949.53;5290369;28;19924;-67
2022/12/20 10:38:22;;;;;;;;;;;;;;;9.17;100.00;100942.28;5282690;28;19923;-67
2022/12/20 10:40:54;;;;;;;;;;;;;;;9.20;100.00;100944.72;5278637;28;19920;-67
2022/12/20 10:43:25;;;;;;;;;;;;;;;9.18;100.00;100942.16;5292201;28;19924;-67
2022/12/20 10:46:00;;;;;;;;;;;;;;;9.17;100.00;100943.13;5291054;28;19924;-67
2022/12/20 10:48:33;;;;;;;;;;;;;;;9.17;100.00;100936.97;5293659;28;20057;-67
2022/12/20 10:51:11;;;;;;;;;;;;;;;9.18;100.00;100922.69;5284008;28;19928;-67
2022/12/20 10:53:48;;;;;;;;;;;;;;;9.16;100.00;100921.94;5289724;28;19977;-67
2022/12/20 10:56:26;;;;;;;;;;;;;;;9.15;100.00;100922.91;5284287;28;19931;-66
2022/12/20 10:58:59;;;;;;;;;;;;;;;9.15;100.00;100928.25;5290904;28;19970;-66
2022/12/20 11:01:32;;;;;;;;;;;;;;;9.13;100.00;100917.69;5285062;28;19935;-66
2022/12/20 11:04:05;;;;;;;;;;;;;;;9.13;100.00;100916.84;5285951;28;19923;-66
2022/12/20 11:06:36;;;;;;;;;;;;;;;9.13;100.00;100922.16;5294811;28;19924;-66
2022/12/20 11:09:28;;;;;;;;;;;;;;;9.11;100.00;100919.63;5291397;28;21386;-66
2022/12/20 11:12:02;;;;;;;;;;;;;;;9.11;100.00;100921.41;5264418;28;19920;-66
2022/12/20 11:14:34;;;;;;;;;;;;;;;9.12;100.00;100912.47;5292222;28;19966;-66
2022/12/20 11:17:29;;;;;;;;;;;;;;;9.12;100.00;100915.97;5281675;28;19920;-66
2022/12/20 11:20:19;;;;;;;;;;;;;;;9.13;100.00;100911.53;5286709;28;19951;-66
2022/12/20 11:22:50;;;;;;;;;;;;;;;9.13;100.00;100909.72;5294457;28;19927;-66
2022/12/20 11:25:31;;;;;;;;;;;;;;;9.13;100.00;100907.03;5291946;28;20382;-66
2022/12/20 11:28:13;;;;;;;;;;;;;;;9.13;100.00;100904.38;5292929;28;19993;-67
2022/12/20 11:30:47;;;;;;;;;;;;;;;9.13;100.00;100912.38;5287487;28;19923;-65
2022/12/20 11:33:47;;;;;;;;;;;;;;;9.14;100.00;100911.41;5292654;28;19916;-66
2022/12/20 11:36:24;;;;;;;;;;;;;;;9.15;100.00;100901.63;5231526;28;19928;-66
2022/12/20 11:39:09;;;;;;;;;;;;;;;9.15;100.00;100905.13;5293690;28;20016;-66
2022/12/20 11:41:41;;;;;;;;;;;;;;;9.16;100.00;100896.16;5288458;28;19973;-66
2022/12/20 11:44:15;;;;;;;;;;;;;;;9.17;100.00;100903.22;5294616;28;20426;-65
2022/12/20 11:46:57;;;;;;;;;;;;;;;9.17;100.00;100889.06;5288664;28;19924;-65
2022/12/20 11:49:34;;;;;;;;;;;;;;;9.16;100.00;100893.50;5292177;28;19923;-65
2022/12/20 11:52:17;;;;;;;;;;;;;;;9.15;100.00;100878.50;5287495;28;19920;-65
2022/12/20 11:54:55;;;;;;;;;;;;;;;9.15;100.00;100881.16;5299936;28;20065;-63
2022/12/20 11:57:31;;;;;;;;;;;;;;;9.15;100.00;100889.16;5282726;28;19928;-63
2022/12/20 12:00:03;;;;;;;;;;;;;;;9.18;100.00;100885.41;5284751;28;19921;-63
2022/12/20 12:02:53;;;;;;;;;;;;;;;9.19;100.00;100882.66;5293728;28;19920;-64
2022/12/20 12:05:24;;;;;;;;;;;;;;;9.21;100.00;100877.22;5303409;28;19965;-63
2022/12/20 12:07:59;;;;;;;;;;;;;;;9.22;100.00;100869.13;5288208;28;19928;-63
2022/12/20 12:10:36;;;;;;;;;;;;;;;9.21;100.00;100875.41;5288007;28;19920;-63
2022/12/20 12:13:17;;;;;;;;;;;;;;;9.21;100.00;100880.72;5289303;28;19921;-63
2022/12/20 12:15:54;;;;;;;;;;;;;;;9.22;100.00;100874.47;5294942;28;19920;-63
2022/12/20 12:18:30;;;;;;;;;;;;;;;9.23;100.00;100876.16;5287123;28;20331;-63
2022/12/20 12:21:07;;;;;;;;;;;;;;;9.23;100.00;100865.50;5285013;28;19973;-63
2022/12/20 12:23:56;;;;;;;;;;;;;;;9.27;100.00;100873.28;5284632;28;20012;-64
2022/12/20 12:26:32;;;;;;;;;;;;;;;9.27;100.00;100863.47;5293189;28;19920;-63
2022/12/20 12:29:09;;;;;;;;;;;;;;;9.28;100.00;100859.88;5287441;28;19920;-63
2022/12/20 12:31:52;;;;;;;;;;;;;;;9.29;100.00;100860.72;5282631;28;20645;-63
2022/12/20 12:34:35;;;;;;;;;;;;;;;9.29;100.00;100866.88;5283456;28;19924;-64
2022/12/20 12:37:15;;;;;;;;;;;;;;;9.29;100.00;100864.22;5285975;28;19935;-63
2022/12/20 12:39:46;;;;;;;;;;;;;;;9.29;100.00;100860.72;5280888;28;20196;-64
2022/12/20 12:42:23;;;;;;;;;;;;;;;9.31;100.00;100872.94;5288917;28;19916;-63
2022/12/20 12:45:04;;;;;;;;;;;;;;;9.30;100.00;100865.06;5286367;28;20226;-63
2022/12/20 12:47:38;;;;;;;;;;;;;;;9.29;100.00;100866.88;5289855;28;19920;-63
2022/12/20 12:50:29;;;;;;;;;;;;;;;9.30;100.00;100860.59;5279144;28;19974;-63
2022/12/20 12:53:05;;;;;;;;;;;;;;;9.32;100.00;100868.47;5288902;28;20267;-63
2022/12/20 12:55:40;;;;;;;;;;;;;;;9.33;100.00;100867.53;5285704;28;19924;-65
2022/12/20 12:58:23;;;;;;;;;;;;;;;9.31;100.00;100856.13;5285828;28;19989;-65
2022/12/20 13:00:56;;;;;;;;;;;;;;;9.32;100.00;100863.13;5288875;28;19927;-65
2022/12/20 13:03:36;;;;;;;;;;;;;;;9.31;100.00;100854.31;5300180;28;19920;-66
2022/12/20 13:06:22;;;;;;;;;;;;;;;9.29;100.00;100860.72;5284063;28;20309;-65
2022/12/20 13:09:02;;;;;;;;;;;;;;;9.29;100.00;100860.72;5289912;28;19924;-65
2022/12/20 13:11:34;;;;;;;;;;;;;;;9.29;100.00;100860.72;5293212;28;19920;-64
2022/12/20 13:14:23;;;;;;;;;;;;;;;9.30;100.00;100855.28;5282813;28;19927;-65
2022/12/20 13:17:00;;;;;;;;;;;;;;;9.31;100.00;100853.47;5288915;28;19924;-65
2022/12/20 13:19:32;;;;;;;;;;;;;;;9.29;100.00;100858.88;5285301;28;19920;-64